sensor_id;sensor_type;location;lat;lon;timestamp;pressure;altitude;pressure_sealevel;temperature;humidity
49194;BME280;35029;50.804;12.866;2023-04-29T00:01:21;97171.19;;;10.20;100.00
49194;BME280;35029;50.804;12.866;2023-04-29T00:03:47;97181.38;;;10.23;100.00
49194;BME280;35029;50.804;12.866;2023-04-29T00:06:13;97182.78;;;10.32;100.00
49194;BME280;35029;50.804;12.866;2023-04-29T00:08:39;97158.75;;;10.27;100.00
49194;BME280;35029;50.804;12.866;2023-04-29T00:11:05;97158.94;;;10.32;100.00
49194;BME280;35029;50.804;12.866;2023-04-29T00:13:30;97163.63;;;10.30;100.00
49194;BME280;35029;50.804;12.866;2023-04-29T00:15:56;97147.94;;;10.29;100.00
49194;BME280;35029;50.804;12.866;2023-04-29T00:18:21;97152.88;;;10.25;100.00
49194;BME280;35029;50.804;12.866;2023-04-29T00:20:47;97126.78;;;10.09;100.00
49194;BME280;35029;50.804;12.866;2023-04-29T00:23:13;97151.03;;;10.19;100.00
49194;BME280;35029;50.804;12.866;2023-04-29T00:25:39;97156.31;;;10.19;100.00
49194;BME280;35029;50.804;12.866;2023-04-29T00:28:05;97174.66;;;10.14;100.00
49194;BME280;35029;50.804;12.866;2023-04-29T00:30:30;97163.50;;;9.98;100.00
49194;BME280;35029;50.804;12.866;2023-04-29T00:32:57;97182.00;;;10.12;100.00
49194;BME280;35029;50.804;12.866;2023-04-29T00:35:23;97171.22;;;10.13;100.00
49194;BME280;35029;50.804;12.866;2023-04-29T00:37:48;97163.25;;;10.20;100.00
49194;BME280;35029;50.804;12.866;2023-04-29T00:40:14;97148.38;;;10.19;100.00
49194;BME280;35029;50.804;12.866;2023-04-29T00:42:42;97154.25;;;10.28;100.00
49194;BME280;35029;50.804;12.866;2023-04-29T00:45:08;97160.19;;;10.30;100.00
49194;BME280;35029;50.804;12.866;2023-04-29T00:47:36;97159.56;;;10.28;100.00
49194;BME280;35029;50.804;12.866;2023-04-29T00:50:03;97144.72;;;10.20;100.00
49194;BME280;35029;50.804;12.866;2023-04-29T00:52:29;97165.69;;;10.28;100.00
49194;BME280;35029;50.804;12.866;2023-04-29T00:54:56;97163.03;;;10.28;100.00
49194;BME280;35029;50.804;12.866;2023-04-29T00:57:21;97155.69;;;10.30;100.00
49194;BME280;35029;50.804;12.866;2023-04-29T00:59:48;97170.56;;;10.31;100.00
49194;BME280;35029;50.804;12.866;2023-04-29T01:02:14;97119.66;;;10.16;100.00
49194;BME280;35029;50.804;12.866;2023-04-29T01:04:42;97173.22;;;10.38;100.00
49194;BME280;35029;50.804;12.866;2023-04-29T01:07:23;97149.59;;;10.23;100.00
49194;BME280;35029;50.804;12.866;2023-04-29T01:17:24;97151.84;;;10.20;100.00
49194;BME280;35029;50.804;12.866;2023-04-29T01:19:56;97173.41;;;10.30;100.00
49194;BME280;35029;50.804;12.866;2023-04-29T01:22:23;97170.97;;;10.28;100.00
49194;BME280;35029;50.804;12.866;2023-04-29T01:24:49;97131.50;;;10.07;100.00
49194;BME280;35029;50.804;12.866;2023-04-29T01:27:36;97171.78;;;10.29;100.00
49194;BME280;35029;50.804;12.866;2023-04-29T01:32:52;97177.09;;;10.36;100.00
49194;BME280;35029;50.804;12.866;2023-04-29T01:38:29;97162.19;;;10.28;100.00
49194;BME280;35029;50.804;12.866;2023-04-29T01:41:16;97184.81;;;10.44;100.00
49194;BME280;35029;50.804;12.866;2023-04-29T01:43:46;97167.94;;;10.38;100.00
49194;BME280;35029;50.804;12.866;2023-04-29T01:46:19;97192.53;;;10.52;100.00
49194;BME280;35029;50.804;12.866;2023-04-29T01:48:45;97197.03;;;10.52;100.00
49194;BME280;35029;50.804;12.866;2023-04-29T01:51:10;97195.19;;;10.52;100.00
49194;BME280;35029;50.804;12.866;2023-04-29T01:53:38;97193.56;;;10.51;100.00
49194;BME280;35029;50.804;12.866;2023-04-29T01:56:06;97190.91;;;10.51;100.00
49194;BME280;35029;50.804;12.866;2023-04-29T01:58:45;97172.22;;;10.39;100.00
49194;BME280;35029;50.804;12.866;2023-04-29T02:01:28;97191.75;;;10.52;100.00
49194;BME280;35029;50.804;12.866;2023-04-29T02:03:54;97194.19;;;10.53;100.00
49194;BME280;35029;50.804;12.866;2023-04-29T02:06:19;97176.88;;;10.44;100.00
49194;BME280;35029;50.804;12.866;2023-04-29T02:08:50;97180.13;;;10.53;100.00
49194;BME280;35029;50.804;12.866;2023-04-29T02:11:16;97188.66;;;10.55;100.00
49194;BME280;35029;50.804;12.866;2023-04-29T02:13:42;97183.59;;;10.53;100.00
49194;BME280;35029;50.804;12.866;2023-04-29T02:16:10;97191.75;;;10.52;100.00
49194;BME280;35029;50.804;12.866;2023-04-29T02:18:38;97169.53;;;10.46;100.00
49194;BME280;35029;50.804;12.866;2023-04-29T02:21:05;97184.22;;;10.48;100.00
49194;BME280;35029;50.804;12.866;2023-04-29T02:23:37;97191.97;;;10.50;100.00
49194;BME280;35029;50.804;12.866;2023-04-29T02:26:03;97173.41;;;10.50;100.00
49194;BME280;35029;50.804;12.866;2023-04-29T02:28:33;97181.13;;;10.52;100.00
49194;BME280;35029;50.804;12.866;2023-04-29T02:30:59;97181.56;;;10.48;100.00
49194;BME280;35029;50.804;12.866;2023-04-29T02:33:25;97184.41;;;10.47;100.00
49194;BME280;35029;50.804;12.866;2023-04-29T02:35:51;97181.59;;;10.42;100.00
49194;BME280;35029;50.804;12.866;2023-04-29T02:38:16;97188.69;;;10.41;100.00
49194;BME280;35029;50.804;12.866;2023-04-29T02:40:45;97173.41;;;10.30;100.00
49194;BME280;35029;50.804;12.866;2023-04-29T02:43:12;97169.97;;;10.29;100.00
49194;BME280;35029;50.804;12.866;2023-04-29T02:45:38;97177.50;;;10.46;100.00
49194;BME280;35029;50.804;12.866;2023-04-29T02:48:04;97178.09;;;10.48;100.00
49194;BME280;35029;50.804;12.866;2023-04-29T02:50:30;97186.47;;;10.45;100.00
49194;BME280;35029;50.804;12.866;2023-04-29T02:52:56;97191.53;;;10.46;100.00
49194;BME280;35029;50.804;12.866;2023-04-29T02:55:22;97190.97;;;10.44;100.00
49194;BME280;35029;50.804;12.866;2023-04-29T02:57:47;97188.50;;;10.43;100.00
49194;BME280;35029;50.804;12.866;2023-04-29T03:00:13;97178.53;;;10.38;100.00
49194;BME280;35029;50.804;12.866;2023-04-29T03:02:39;97177.94;;;10.36;100.00
49194;BME280;35029;50.804;12.866;2023-04-29T03:05:05;97190.09;;;10.57;100.00
49194;BME280;35029;50.804;12.866;2023-04-29T03:07:31;97181.13;;;10.52;100.00
49194;BME280;35029;50.804;12.866;2023-04-29T03:09:57;97173.81;;;10.47;100.00
49194;BME280;35029;50.804;12.866;2023-04-29T03:12:22;97191.72;;;10.58;100.00
49194;BME280;35029;50.804;12.866;2023-04-29T03:14:48;97169.34;;;10.47;100.00
49194;BME280;35029;50.804;12.866;2023-04-29T03:17:14;97160.38;;;10.48;100.00
49194;BME280;35029;50.804;12.866;2023-04-29T03:19:41;97177.25;;;10.54;100.00
49194;BME280;35029;50.804;12.866;2023-04-29T03:22:07;97180.88;;;10.67;100.00
49194;BME280;35029;50.804;12.866;2023-04-29T03:24:35;97166.44;;;10.56;100.00
49194;BME280;35029;50.804;12.866;2023-04-29T03:27:02;97169.91;;;10.56;100.00
49194;BME280;35029;50.804;12.866;2023-04-29T03:29:29;97177.84;;;10.63;100.00
49194;BME280;35029;50.804;12.866;2023-04-29T03:31:55;97175.41;;;10.61;100.00
49194;BME280;35029;50.804;12.866;2023-04-29T03:34:21;97173.75;;;10.60;100.00
49194;BME280;35029;50.804;12.866;2023-04-29T03:36:56;97154.44;;;10.53;100.00
49194;BME280;35029;50.804;12.866;2023-04-29T03:39:22;97177.00;;;10.69;100.00
49194;BME280;35029;50.804;12.866;2023-04-29T03:41:47;97179.44;;;10.71;100.00
49194;BME280;35029;50.804;12.866;2023-04-29T03:44:13;97165.56;;;10.69;100.00
49194;BME280;35029;50.804;12.866;2023-04-29T03:46:39;97159.31;;;10.56;100.00
49194;BME280;35029;50.804;12.866;2023-04-29T03:49:05;97160.53;;;10.54;100.00
49194;BME280;35029;50.804;12.866;2023-04-29T03:51:30;97178.03;;;10.68;100.00
49194;BME280;35029;50.804;12.866;2023-04-29T03:54:05;97169.28;;;10.68;100.00
49194;BME280;35029;50.804;12.866;2023-04-29T03:56:30;97176.00;;;10.63;100.00
49194;BME280;35029;50.804;12.866;2023-04-29T03:58:56;97178.44;;;10.65;100.00
49194;BME280;35029;50.804;12.866;2023-04-29T04:01:24;97178.47;;;10.58;100.00
49194;BME280;35029;50.804;12.866;2023-04-29T04:03:51;97188.44;;;10.63;100.00
49194;BME280;35029;50.804;12.866;2023-04-29T04:06:16;97178.84;;;10.62;100.00
49194;BME280;35029;50.804;12.866;2023-04-29T04:08:42;97193.66;;;10.90;100.00
49194;BME280;35029;50.804;12.866;2023-04-29T04:11:14;97188.94;;;10.92;100.00
49194;BME280;35029;50.804;12.866;2023-04-29T04:13:56;97182.06;;;10.84;100.00
49194;BME280;35029;50.804;12.866;2023-04-29T04:16:22;97187.47;;;10.96;100.00
49194;BME280;35029;50.804;12.866;2023-04-29T04:18:47;97193.25;;;10.79;100.00
49194;BME280;35029;50.804;12.866;2023-04-29T04:21:13;97192.66;;;10.84;100.00
49194;BME280;35029;50.804;12.866;2023-04-29T04:23:42;97187.75;;;10.81;100.00
49194;BME280;35029;50.804;12.866;2023-04-29T04:26:11;97193.84;;;10.95;100.00
49194;BME280;35029;50.804;12.866;2023-04-29T04:28:55;97195.66;;;10.94;100.00
49194;BME280;35029;50.804;12.866;2023-04-29T04:31:43;97179.00;;;10.80;100.00
49194;BME280;35029;50.804;12.866;2023-04-29T04:34:09;97188.38;;;10.83;100.00
49194;BME280;35029;50.804;12.866;2023-04-29T04:36:35;97201.66;;;10.76;100.00
49194;BME280;35029;50.804;12.866;2023-04-29T04:39:01;97196.53;;;10.81;100.00
49194;BME280;35029;50.804;12.866;2023-04-29T04:41:26;97198.97;;;10.83;100.00
49194;BME280;35029;50.804;12.866;2023-04-29T04:43:56;97207.13;;;10.81;100.00
49194;BME280;35029;50.804;12.866;2023-04-29T04:46:42;97208.97;;;10.81;100.00
49194;BME280;35029;50.804;12.866;2023-04-29T04:49:12;97177.16;;;10.74;100.00
49194;BME280;35029;50.804;12.866;2023-04-29T04:51:44;97184.72;;;10.77;100.00
49194;BME280;35029;50.804;12.866;2023-04-29T04:54:10;97208.56;;;10.84;100.00
49194;BME280;35029;50.804;12.866;2023-04-29T04:56:37;97196.84;;;10.98;100.00
49194;BME280;35029;50.804;12.866;2023-04-29T04:59:04;97210.53;;;10.95;100.00
49194;BME280;35029;50.804;12.866;2023-04-29T05:01:30;97206.25;;;10.94;100.00
49194;BME280;35029;50.804;12.866;2023-04-29T05:03:56;97191.22;;;10.88;100.00
49194;BME280;35029;50.804;12.866;2023-04-29T05:06:22;97204.44;;;10.95;100.00
49194;BME280;35029;50.804;12.866;2023-04-29T05:08:49;97206.03;;;11.03;100.00
49194;BME280;35029;50.804;12.866;2023-04-29T05:11:19;97202.19;;;10.92;100.00
49194;BME280;35029;50.804;12.866;2023-04-29T05:13:57;97212.00;;;10.91;100.00
49194;BME280;35029;50.804;12.866;2023-04-29T05:16:23;97207.94;;;10.82;100.00
49194;BME280;35029;50.804;12.866;2023-04-29T05:18:48;97211.59;;;10.88;100.00
49194;BME280;35029;50.804;12.866;2023-04-29T05:21:15;97199.31;;;10.93;100.00
49194;BME280;35029;50.804;12.866;2023-04-29T05:23:40;97205.47;;;10.87;100.00
49194;BME280;35029;50.804;12.866;2023-04-29T05:26:07;97203.59;;;10.94;100.00
49194;BME280;35029;50.804;12.866;2023-04-29T05:28:35;97214.66;;;10.91;100.00
49194;BME280;35029;50.804;12.866;2023-04-29T05:31:02;97212.00;;;10.91;100.00
49194;BME280;35029;50.804;12.866;2023-04-29T05:33:28;97208.38;;;10.79;100.00
49194;BME280;35029;50.804;12.866;2023-04-29T05:35:55;97188.44;;;10.63;100.00
49194;BME280;35029;50.804;12.866;2023-04-29T05:38:22;97204.03;;;10.91;100.00
49194;BME280;35029;50.804;12.866;2023-04-29T05:41:01;97217.63;;;11.08;100.00
49194;BME280;35029;50.804;12.866;2023-04-29T05:43:27;97232.28;;;11.18;100.00
49194;BME280;35029;50.804;12.866;2023-04-29T05:45:53;97229.03;;;11.15;100.00
49194;BME280;35029;50.804;12.866;2023-04-29T05:48:19;97227.78;;;11.18;100.00
49194;BME280;35029;50.804;12.866;2023-04-29T05:50:45;97208.91;;;10.94;100.00
49194;BME280;35029;50.804;12.866;2023-04-29T05:53:12;97229.16;;;11.27;100.00
49194;BME280;35029;50.804;12.866;2023-04-29T05:55:40;97231.22;;;11.25;100.00
49194;BME280;35029;50.804;12.866;2023-04-29T05:58:08;97247.38;;;11.17;100.00
49194;BME280;35029;50.804;12.866;2023-04-29T06:00:34;97241.31;;;11.10;100.00
49194;BME280;35029;50.804;12.866;2023-04-29T06:03:09;97244.59;;;10.98;100.00
49194;BME280;35029;50.804;12.866;2023-04-29T06:05:35;97249.06;;;11.05;100.00
49194;BME280;35029;50.804;12.866;2023-04-29T06:08:19;97251.28;;;11.14;100.00
49194;BME280;35029;50.804;12.866;2023-04-29T06:10:51;97250.00;;;11.24;100.00
49194;BME280;35029;50.804;12.866;2023-04-29T06:13:17;97247.81;;;11.14;100.00
49194;BME280;35029;50.804;12.866;2023-04-29T06:15:43;97256.16;;;11.18;100.00
49194;BME280;35029;50.804;12.866;2023-04-29T06:18:09;97264.94;;;11.18;100.00
49194;BME280;35029;50.804;12.866;2023-04-29T06:20:34;97241.75;;;10.93;100.00
49194;BME280;35029;50.804;12.866;2023-04-29T06:23:01;97270.06;;;11.13;100.00
49194;BME280;35029;50.804;12.866;2023-04-29T06:25:27;97253.41;;;10.92;100.00
49194;BME280;35029;50.804;12.866;2023-04-29T06:27:56;97256.44;;;10.96;100.00
49194;BME280;35029;50.804;12.866;2023-04-29T06:30:24;97256.66;;;10.94;100.00
49194;BME280;35029;50.804;12.866;2023-04-29T06:32:50;97260.53;;;10.85;100.00
49194;BME280;35029;50.804;12.866;2023-04-29T06:35:16;97273.41;;;10.88;100.00
49194;BME280;35029;50.804;12.866;2023-04-29T06:37:59;97291.94;;;10.95;100.00
49194;BME280;35029;50.804;12.866;2023-04-29T06:40:43;97288.09;;;10.84;100.00
49194;BME280;35029;50.804;12.866;2023-04-29T06:43:09;97283.59;;;10.91;100.00
49194;BME280;35029;50.804;12.866;2023-04-29T06:45:34;97288.69;;;10.93;100.00
49194;BME280;35029;50.804;12.866;2023-04-29T06:48:06;97300.91;;;10.94;100.00
49194;BME280;35029;50.804;12.866;2023-04-29T06:50:37;97290.09;;;10.95;100.00
49194;BME280;35029;50.804;12.866;2023-04-29T06:53:05;97293.19;;;10.92;100.00
49194;BME280;35029;50.804;12.866;2023-04-29T06:55:31;97302.56;;;10.95;100.00
49194;BME280;35029;50.804;12.866;2023-04-29T06:57:56;97300.50;;;10.97;100.00
49194;BME280;35029;50.804;12.866;2023-04-29T07:00:22;97295.19;;;11.04;100.00
49194;BME280;35029;50.804;12.866;2023-04-29T07:02:48;97275.84;;;10.90;100.00
49194;BME280;35029;50.804;12.866;2023-04-29T07:05:14;97295.19;;;10.97;100.00
49194;BME280;35029;50.804;12.866;2023-04-29T07:07:41;97309.44;;;11.03;100.00
49194;BME280;35029;50.804;12.866;2023-04-29T07:10:07;97304.97;;;11.03;100.00
49194;BME280;35029;50.804;12.866;2023-04-29T07:12:33;97304.16;;;11.03;100.00
49194;BME280;35029;50.804;12.866;2023-04-29T07:14:59;97301.69;;;11.08;100.00
49194;BME280;35029;50.804;12.866;2023-04-29T07:17:24;97317.59;;;11.08;100.00
49194;BME280;35029;50.804;12.866;2023-04-29T07:19:50;97302.91;;;11.05;100.00
49194;BME280;35029;50.804;12.866;2023-04-29T07:22:16;97303.31;;;11.15;100.00
49194;BME280;35029;50.804;12.866;2023-04-29T07:24:43;97320.75;;;11.43;100.00
49194;BME280;35029;50.804;12.866;2023-04-29T07:27:08;97325.19;;;11.56;100.00
49194;BME280;35029;50.804;12.866;2023-04-29T07:29:35;97308.34;;;11.69;100.00
49194;BME280;35029;50.804;12.866;2023-04-29T07:32:00;97313.78;;;11.88;100.00
49194;BME280;35029;50.804;12.866;2023-04-29T07:34:26;97307.03;;;11.85;100.00
49194;BME280;35029;50.804;12.866;2023-04-29T07:36:52;97316.06;;;11.77;100.00
49194;BME280;35029;50.804;12.866;2023-04-29T07:39:17;97327.50;;;11.78;100.00
49194;BME280;35029;50.804;12.866;2023-04-29T07:41:46;97327.50;;;11.78;100.00
49194;BME280;35029;50.804;12.866;2023-04-29T07:44:12;97334.63;;;11.84;100.00
49194;BME280;35029;50.804;12.866;2023-04-29T07:46:37;97327.84;;;11.88;100.00
49194;BME280;35029;50.804;12.866;2023-04-29T07:49:03;97338.47;;;11.95;100.00
49194;BME280;35029;50.804;12.866;2023-04-29T07:51:29;97332.59;;;12.18;100.00
49194;BME280;35029;50.804;12.866;2023-04-29T07:53:55;97347.75;;;12.17;100.00
49194;BME280;35029;50.804;12.866;2023-04-29T07:56:20;97349.75;;;12.22;100.00
49194;BME280;35029;50.804;12.866;2023-04-29T07:58:47;97346.66;;;11.87;100.00
49194;BME280;35029;50.804;12.866;2023-04-29T08:01:14;97353.22;;;11.84;100.00
49194;BME280;35029;50.804;12.866;2023-04-29T08:03:40;97352.75;;;11.94;100.00
49194;BME280;35029;50.804;12.866;2023-04-29T08:06:06;97356.84;;;11.96;100.00
49194;BME280;35029;50.804;12.866;2023-04-29T08:08:33;97343.72;;;12.08;100.00
49194;BME280;35029;50.804;12.866;2023-04-29T08:10:58;97354.03;;;12.23;100.00
49194;BME280;35029;50.804;12.866;2023-04-29T08:13:24;97352.56;;;12.27;100.00
49194;BME280;35029;50.804;12.866;2023-04-29T08:15:50;97356.25;;;12.51;100.00
49194;BME280;35029;50.804;12.866;2023-04-29T08:18:16;97368.03;;;12.37;100.00
49194;BME280;35029;50.804;12.866;2023-04-29T08:20:41;97368.69;;;12.32;100.00
49194;BME280;35029;50.804;12.866;2023-04-29T08:23:07;97367.56;;;12.15;100.00
49194;BME280;35029;50.804;12.866;2023-04-29T08:25:32;97354.38;;;12.02;100.00
49194;BME280;35029;50.804;12.866;2023-04-29T08:27:58;97383.34;;;12.10;100.00
49194;BME280;35029;50.804;12.866;2023-04-29T08:30:23;97382.81;;;11.94;100.00
49194;BME280;35029;50.804;12.866;2023-04-29T08:32:49;97376.28;;;11.90;100.00
49194;BME280;35029;50.804;12.866;2023-04-29T08:35:15;97386.25;;;12.02;100.00
49194;BME280;35029;50.804;12.866;2023-04-29T08:37:41;97394.22;;;12.02;100.00
49194;BME280;35029;50.804;12.866;2023-04-29T08:40:07;97378.94;;;11.90;100.00
49194;BME280;35029;50.804;12.866;2023-04-29T08:42:35;97401.19;;;11.89;100.00
49194;BME280;35029;50.804;12.866;2023-04-29T08:45:02;97393.03;;;11.91;100.00
49194;BME280;35029;50.804;12.866;2023-04-29T08:47:32;97400.78;;;11.99;100.00
49194;BME280;35029;50.804;12.866;2023-04-29T08:50:05;97410.53;;;12.05;100.00
49194;BME280;35029;50.804;12.866;2023-04-29T08:52:33;97409.16;;;11.89;100.00
49194;BME280;35029;50.804;12.866;2023-04-29T08:55:00;97411.59;;;11.91;100.00
49194;BME280;35029;50.804;12.866;2023-04-29T08:57:35;97411.00;;;11.89;100.00
49194;BME280;35029;50.804;12.866;2023-04-29T09:00:08;97418.13;;;12.02;100.00
49194;BME280;35029;50.804;12.866;2023-04-29T09:02:46;97431.00;;;11.98;100.00
49194;BME280;35029;50.804;12.866;2023-04-29T09:05:13;97423.66;;;12.00;100.00
49194;BME280;35029;50.804;12.866;2023-04-29T09:07:40;97433.16;;;12.14;100.00
49194;BME280;35029;50.804;12.866;2023-04-29T09:10:07;97423.75;;;12.18;100.00
49194;BME280;35029;50.804;12.866;2023-04-29T09:12:32;97436.81;;;12.20;100.00
49194;BME280;35029;50.804;12.866;2023-04-29T09:14:58;97438.44;;;12.21;100.00
49194;BME280;35029;50.804;12.866;2023-04-29T09:17:41;97441.28;;;12.26;100.00
49194;BME280;35029;50.804;12.866;2023-04-29T09:20:28;97427.00;;;12.52;100.00
49194;BME280;35029;50.804;12.866;2023-04-29T09:22:57;97429.28;;;12.49;100.00
49194;BME280;35029;50.804;12.866;2023-04-29T09:25:23;97435.19;;;12.51;100.00
49194;BME280;35029;50.804;12.866;2023-04-29T09:27:49;97437.41;;;12.54;100.00
49194;BME280;35029;50.804;12.866;2023-04-29T09:30:18;97432.72;;;12.56;100.00
49194;BME280;35029;50.804;12.866;2023-04-29T09:32:44;97450.75;;;12.79;100.00
49194;BME280;35029;50.804;12.866;2023-04-29T09:35:22;97460.41;;;12.74;100.00
49194;BME280;35029;50.804;12.866;2023-04-29T09:38:27;97459.47;;;12.87;100.00
49194;BME280;35029;50.804;12.866;2023-04-29T09:40:52;97456.81;;;12.87;100.00
49194;BME280;35029;50.804;12.866;2023-04-29T09:43:18;97420.84;;;12.59;100.00
49194;BME280;35029;50.804;12.866;2023-04-29T09:45:45;97455.91;;;12.99;100.00
49194;BME280;35029;50.804;12.866;2023-04-29T09:48:12;97465.25;;;12.83;100.00
49194;BME280;35029;50.804;12.866;2023-04-29T09:50:40;97469.91;;;12.88;100.00
49194;BME280;35029;50.804;12.866;2023-04-29T09:53:07;97467.84;;;12.90;100.00
49194;BME280;35029;50.804;12.866;2023-04-29T09:56:00;97469.81;;;13.01;100.00
49194;BME280;35029;50.804;12.866;2023-04-29T09:58:33;97440.91;;;12.80;100.00
49194;BME280;35029;50.804;12.866;2023-04-29T10:01:03;97476.94;;;13.08;100.00
49194;BME280;35029;50.804;12.866;2023-04-29T10:03:34;97480.63;;;13.07;100.00
49194;BME280;35029;50.804;12.866;2023-04-29T10:06:01;97473.22;;;13.09;100.00
49194;BME280;35029;50.804;12.866;2023-04-29T10:08:31;97472.53;;;13.20;100.00
49194;BME280;35029;50.804;12.866;2023-04-29T10:10:59;97486.47;;;13.15;100.00
49194;BME280;35029;50.804;12.866;2023-04-29T10:13:26;97493.88;;;12.81;100.00
49194;BME280;35029;50.804;12.866;2023-04-29T10:18:51;97501.66;;;12.12;100.00
49194;BME280;35029;50.804;12.866;2023-04-29T10:21:20;97479.50;;;11.73;100.00
49194;BME280;35029;50.804;12.866;2023-04-29T10:23:48;97501.59;;;11.67;100.00
49194;BME280;35029;50.804;12.866;2023-04-29T10:26:16;97500.19;;;11.58;100.00
49194;BME280;35029;50.804;12.866;2023-04-29T10:28:43;97501.59;;;11.67;100.00
49194;BME280;35029;50.804;12.866;2023-04-29T10:31:11;97503.81;;;11.70;100.00
49194;BME280;35029;50.804;12.866;2023-04-29T10:33:39;97505.41;;;11.78;100.00
49194;BME280;35029;50.804;12.866;2023-04-29T10:36:08;97511.56;;;11.78;100.00
49194;BME280;35029;50.804;12.866;2023-04-29T10:38:39;97494.22;;;11.62;100.00
49194;BME280;35029;50.804;12.866;2023-04-29T10:41:09;97519.56;;;11.65;100.00
49194;BME280;35029;50.804;12.866;2023-04-29T10:43:39;97517.31;;;11.62;100.00
49194;BME280;35029;50.804;12.866;2023-04-29T10:46:19;97512.63;;;11.57;100.00
49194;BME280;35029;50.804;12.866;2023-04-29T10:48:46;97514.06;;;11.46;100.00
49194;BME280;35029;50.804;12.866;2023-04-29T10:51:11;97518.56;;;11.46;100.00
49194;BME280;35029;50.804;12.866;2023-04-29T10:54:16;97525.31;;;11.28;100.00
49194;BME280;35029;50.804;12.866;2023-04-29T10:56:49;97521.66;;;11.29;100.00
49194;BME280;35029;50.804;12.866;2023-04-29T10:59:19;97495.91;;;11.30;100.00
49194;BME280;35029;50.804;12.866;2023-04-29T11:01:52;97514.06;;;11.40;100.00
49194;BME280;35029;50.804;12.866;2023-04-29T11:04:21;97511.22;;;11.41;100.00
49194;BME280;35029;50.804;12.866;2023-04-29T11:06:52;97514.69;;;11.55;100.00
49194;BME280;35029;50.804;12.866;2023-04-29T11:09:26;97519.13;;;11.61;100.00
49194;BME280;35029;50.804;12.866;2023-04-29T11:14:40;97526.06;;;11.69;100.00
49194;BME280;35029;50.804;12.866;2023-04-29T11:19:45;97531.56;;;11.81;100.00
49194;BME280;35029;50.804;12.866;2023-04-29T11:22:12;97525.63;;;11.86;100.00
49194;BME280;35029;50.804;12.866;2023-04-29T11:24:55;97535.66;;;11.83;100.00
49194;BME280;35029;50.804;12.866;2023-04-29T11:27:23;97546.50;;;11.75;100.00
49194;BME280;35029;50.804;12.866;2023-04-29T11:29:54;97542.81;;;11.63;100.00
49194;BME280;35029;50.804;12.866;2023-04-29T11:32:23;97540.59;;;11.53;100.00
49194;BME280;35029;50.804;12.866;2023-04-29T11:34:50;97551.22;;;11.60;100.00
49194;BME280;35029;50.804;12.866;2023-04-29T11:37:25;97557.28;;;11.80;100.00
49194;BME280;35029;50.804;12.866;2023-04-29T11:39:58;97560.72;;;12.08;100.00
49194;BME280;35029;50.804;12.866;2023-04-29T11:42:24;97558.06;;;12.08;100.00
49194;BME280;35029;50.804;12.866;2023-04-29T11:44:57;97561.16;;;11.91;100.00
49194;BME280;35029;50.804;12.866;2023-04-29T11:47:26;97572.34;;;12.20;100.00
49194;BME280;35029;50.804;12.866;2023-04-29T11:49:52;97574.69;;;12.48;100.00
49194;BME280;35029;50.804;12.866;2023-04-29T11:52:27;97574.59;;;12.68;100.00
49194;BME280;35029;50.804;12.866;2023-04-29T11:54:52;97581.38;;;12.64;100.00
49194;BME280;35029;50.804;12.866;2023-04-29T11:57:18;97584.56;;;12.34;100.00
49194;BME280;35029;50.804;12.866;2023-04-29T11:59:45;97578.06;;;12.17;100.00
49194;BME280;35029;50.804;12.866;2023-04-29T12:02:11;97586.69;;;12.12;100.00
49194;BME280;35029;50.804;12.866;2023-04-29T12:04:45;97594.03;;;12.17;100.00
49194;BME280;35029;50.804;12.866;2023-04-29T12:07:14;97588.09;;;12.22;100.00
49194;BME280;35029;50.804;12.866;2023-04-29T12:09:44;97597.09;;;12.21;100.00
49194;BME280;35029;50.804;12.866;2023-04-29T12:12:10;97591.81;;;12.00;100.00
49194;BME280;35029;50.804;12.866;2023-04-29T12:14:36;97597.56;;;11.97;100.00
49194;BME280;35029;50.804;12.866;2023-04-29T12:17:03;97593.47;;;11.95;100.00
49194;BME280;35029;50.804;12.866;2023-04-29T12:19:29;97596.72;;;11.90;100.00
49194;BME280;35029;50.804;12.866;2023-04-29T12:22:02;97596.97;;;11.75;100.00
49194;BME280;35029;50.804;12.866;2023-04-29T12:24:28;97599.78;;;11.80;100.00
49194;BME280;35029;50.804;12.866;2023-04-29T12:26:56;97608.38;;;11.82;100.00
49194;BME280;35029;50.804;12.866;2023-04-29T12:29:25;97587.94;;;11.83;100.00
49194;BME280;35029;50.804;12.866;2023-04-29T12:31:50;97613.25;;;12.19;100.00
49194;BME280;35029;50.804;12.866;2023-04-29T12:34:17;97594.44;;;12.14;100.00
49194;BME280;35029;50.804;12.866;2023-04-29T12:36:48;97615.25;;;12.24;100.00
49194;BME280;35029;50.804;12.866;2023-04-29T12:39:14;97615.88;;;12.26;100.00
49194;BME280;35029;50.804;12.866;2023-04-29T12:41:42;97614.44;;;12.30;100.00
49194;BME280;35029;50.804;12.866;2023-04-29T12:44:08;97615.91;;;12.19;100.00
49194;BME280;35029;50.804;12.866;2023-04-29T12:46:38;97616.28;;;12.16;100.00
49194;BME280;35029;50.804;12.866;2023-04-29T12:49:04;97618.78;;;12.04;100.00
49194;BME280;35029;50.804;12.866;2023-04-29T12:51:34;97613.69;;;11.89;100.00
49194;BME280;35029;50.804;12.866;2023-04-29T12:54:01;97633.91;;;11.83;100.00
49194;BME280;35029;50.804;12.866;2023-04-29T12:56:33;97620.03;;;11.55;100.00
49194;BME280;35029;50.804;12.866;2023-04-29T12:59:09;97627.59;;;11.71;100.00
49194;BME280;35029;50.804;12.866;2023-04-29T13:01:36;97624.53;;;11.88;100.00
49194;BME280;35029;50.804;12.866;2023-04-29T13:04:02;97632.91;;;11.98;100.00
49194;BME280;35029;50.804;12.866;2023-04-29T13:06:30;97638.00;;;12.72;100.00
49194;BME280;35029;50.804;12.866;2023-04-29T13:08:56;97634.63;;;13.28;100.00